| time (UTC) | temp F | wind direction | speed knots | gust knots | rain 1hr in | rain 24hr in | rain mn in | humidity % | barometer mb |
| 20260507085210 | 48 | 269 | 0.9 | 6.1 | 0.00 | 0.00 | 0.00 | 87 | 1005.0 |
| 20260507084708 | 49 | 234 | 0.9 | 6.1 | 0.00 | 0.00 | 0.00 | 88 | 1005.3 |
| 20260507084207 | 49 | 269 | 0.9 | 4.3 | 0.00 | 0.00 | 0.00 | 88 | 1005.3 |
| 20260507083707 | 49 | 271 | 0.9 | 4.3 | 0.00 | 0.00 | 0.00 | 88 | 1005.1 |
| 20260507083210 | 49 | 318 | 0.9 | 4.3 | 0.00 | 0.00 | 0.00 | 88 | 1005.0 |
| 20260507082710 | 49 | 234 | 0.9 | 4.3 | 0.00 | 0.00 | 0.00 | 88 | 1005.1 |
| 20260507082202 | 49 | 44 | 0.9 | 2.6 | 0.00 | 0.00 | 0.00 | 87 | 1005.0 |
| 20260507081203 | 50 | 248 | 1.7 | 6.1 | 0.00 | 0.00 | 0.00 | 86 | 1005.1 |
| 20260507080705 | 50 | 288 | 1.7 | 7.8 | 0.00 | 0.00 | 0.00 | 86 | 1005.2 |
| 20260507080202 | 50 | 272 | 1.7 | 7.8 | 0.00 | 0.00 | 0.00 | 85 | 1005.3 |
| 20260507075701 | 50 | 312 | 1.7 | 5.2 | 0.00 | 0.00 | 0.00 | 85 | 1004.9 |
| 20260507075150 | 50 | 205 | 2.6 | 6.1 | 0.00 | 0.00 | 0.00 | 85 | 1005.3 |
| 20260507074649 | 50 | 201 | 1.7 | 7.0 | 0.00 | 0.00 | 0.00 | 85 | 1005.2 |
| 20260507074151 | 50 | 329 | 1.7 | 7.0 | 0.00 | 0.00 | 0.00 | 85 | 1005.1 |
| 20260507073649 | 51 | 232 | 0.9 | 6.1 | 0.00 | 0.00 | 0.00 | 85 | 1005.0 |
| 20260507073147 | 51 | 101 | 1.7 | 6.1 | 0.00 | 0.00 | 0.00 | 85 | 1004.9 |
| 20260507072646 | 51 | 233 | 1.7 | 7.0 | 0.00 | 0.00 | 0.00 | 85 | 1004.6 |
| 20260507072147 | 51 | 339 | 1.7 | 7.0 | 0.00 | 0.00 | 0.00 | 86 | 1004.7 |
| 20260507071645 | 51 | 233 | 0.9 | 7.0 | 0.00 | 0.00 | 0.00 | 87 | 1004.7 |
| 20260507070644 | 51 | 274 | 1.7 | 6.1 | 0.00 | 0.00 | 0.00 | 87 | 1005.0 |
| 20260507070141 | 51 | 310 | 1.7 | 6.1 | 0.00 | 0.00 | 0.00 | 87 | 1004.5 |
| 20260507065639 | 51 | 248 | 1.7 | 7.0 | 0.00 | 0.00 | 0.00 | 87 | 1004.6 |
| 20260507065136 | 51 | 260 | 1.7 | 7.0 | 0.00 | 0.00 | 0.00 | 88 | 1004.6 |
| 20260507064637 | 51 | 267 | 1.7 | 6.1 | 0.00 | 0.00 | 0.00 | 88 | 1004.5 |
| 20260507064137 | 52 | 285 | 1.7 | 9.6 | 0.00 | 0.00 | 0.00 | 88 | 1004.6 |
| 20260507063635 | 52 | 250 | 0.9 | 9.6 | 0.00 | 0.00 | 0.00 | 88 | 1004.4 |
| 20260507063133 | 52 | 273 | 0.0 | 3.5 | 0.00 | 0.00 | 0.00 | 89 | 1004.3 |
| 20260507062627 | 52 | 271 | 0.9 | 4.3 | 0.00 | 0.00 | 0.00 | 89 | 1004.2 |
| 20260507062121 | 52 | 212 | 0.9 | 4.3 | 0.00 | 0.00 | 0.00 | 90 | 1004.5 |
| 20260507061624 | 52 | 243 | 0.0 | 4.3 | 0.00 | 0.00 | 0.00 | 90 | 1004.4 |
| 20260507061118 | 52 | 302 | 0.0 | 2.6 | 0.00 | 0.00 | 0.00 | 90 | 1004.4 |
| 20260507060117 | 53 | 281 | 0.9 | 6.1 | 0.00 | 0.00 | 0.00 | 90 | 1004.5 |
| 20260507055619 | 53 | 280 | 0.9 | 6.1 | 0.00 | 0.00 | 0.00 | 90 | 1004.6 |
| 20260507055119 | 53 | 282 | 0.9 | 5.2 | 0.00 | 0.00 | 0.00 | 91 | 1004.6 |
| 20260507054619 | 53 | 313 | 0.9 | 4.3 | 0.00 | 0.00 | 0.00 | 91 | 1004.7 |
| 20260507053621 | 53 | 293 | 0.9 | 4.3 | 0.00 | 0.00 | 0.00 | 90 | 1004.5 |
| 20260507053119 | 53 | 249 | 1.7 | 7.0 | 0.00 | 0.00 | 0.00 | 90 | 1004.7 |
| 20260507052615 | 53 | 212 | 0.9 | 7.0 | 0.00 | 0.00 | 0.00 | 90 | 1005.0 |
| 20260507051120 | 53 | 246 | 0.9 | 6.1 | 0.00 | 0.00 | 0.00 | 91 | 1004.7 |
| 20260507050615 | 54 | 308 | 0.9 | 6.1 | 0.00 | 0.00 | 0.00 | 91 | 1004.8 |
| 20260507045609 | 54 | 312 | 0.0 | 3.5 | 0.00 | 0.00 | 0.00 | 92 | 1004.7 |
| 20260507044557 | 54 | 307 | 0.9 | 4.3 | 0.00 | 0.00 | 0.00 | 91 | 1004.4 |
| 20260507044052 | 54 | 234 | 1.7 | 7.0 | 0.00 | 0.00 | 0.00 | 91 | 1004.5 |
| 20260507043547 | 55 | 273 | 1.7 | 7.8 | 0.00 | 0.00 | 0.00 | 91 | 1004.4 |
| 20260507043039 | 55 | 230 | 1.7 | 7.8 | 0.00 | 0.00 | 0.00 | 90 | 1004.5 |
| 20260507042534 | 55 | 230 | 1.7 | 7.0 | 0.00 | 0.00 | 0.00 | 90 | 1004.7 |
| 20260507042028 | 56 | 232 | 1.7 | 7.0 | 0.00 | 0.00 | 0.00 | 90 | 1004.7 |
| 20260507041520 | 56 | 265 | 1.7 | 5.2 | 0.00 | 0.00 | 0.00 | 91 | 1004.7 |
| 20260507041014 | 57 | 237 | 1.7 | 7.0 | 0.00 | 0.00 | 0.00 | 91 | 1004.6 |
| 20260507040509 | 57 | 208 | 0.9 | 7.0 | 0.00 | 0.00 | 0.00 | 92 | 1004.5 |
| 20260507040003 | 58 | 276 | 1.7 | 7.8 | 0.00 | 0.00 | 0.00 | 92 | 1004.3 |
| 20260507035457 | 58 | 332 | 2.6 | 7.8 | 0.00 | 0.00 | 0.00 | 92 | 1004.3 |
| 20260507034950 | 59 | 293 | 1.7 | 7.8 | 0.00 | 0.00 | 0.00 | 93 | 1004.2 |
| 20260507033937 | 59 | 311 | 0.9 | 4.3 | 0.00 | 0.00 | 0.00 | 94 | 1004.0 |
| 20260507033435 | 60 | 189 | 1.7 | 7.8 | 0.00 | 0.00 | 0.00 | 94 | 1003.9 |
| 20260507032927 | 60 | 212 | 1.7 | 7.8 | 0.00 | 0.00 | 0.00 | 94 | 1003.7 |
| 20260507032420 | 60 | 214 | 0.9 | 3.5 | 0.00 | 0.00 | 0.00 | 94 | 1003.6 |
| 20260507031914 | 60 | 252 | 1.7 | 8.7 | 0.00 | 0.00 | 0.00 | 94 | 1003.5 |
| 20260507031408 | 60 | 251 | 2.6 | 8.7 | 0.00 | 0.00 | 0.00 | 94 | 1003.4 |
| 20260507030901 | 60 | 180 | 1.7 | 5.2 | 0.00 | 0.00 | 0.00 | 93 | 1003.5 |
| 20260507030356 | 60 | 217 | 1.7 | 7.0 | 0.00 | 0.00 | 0.00 | 93 | 1003.3 |
| 20260507025343 | 60 | 205 | 2.6 | 7.0 | 0.00 | 0.00 | 0.00 | 93 | 1003.4 |
| 20260507024838 | 60 | 212 | 2.6 | 7.0 | 0.00 | 0.00 | 0.00 | 93 | 1003.4 |
| 20260507024333 | 60 | 248 | 2.6 | 8.7 | 0.00 | 0.00 | 0.00 | 93 | 1003.4 |
| 20260507023826 | 60 | 160 | 1.7 | 8.7 | 0.00 | 0.00 | 0.00 | 93 | 1003.5 |
| 20260507023320 | 60 | 188 | 1.7 | 6.1 | 0.00 | 0.00 | 0.00 | 93 | 1003.4 |
| 20260507022813 | 60 | 232 | 1.7 | 8.7 | 0.00 | 0.00 | 0.00 | 93 | 1003.4 |
| 20260507022308 | 60 | 214 | 2.6 | 8.7 | 0.00 | 0.00 | 0.00 | 93 | 1003.4 |
| 20260507021802 | 60 | 240 | 2.6 | 7.8 | 0.00 | 0.00 | 0.00 | 93 | 1003.3 |
| 20260507021257 | 60 | 162 | 2.6 | 7.8 | 0.00 | 0.00 | 0.00 | 93 | 1003.4 |
| 20260507020751 | 60 | 216 | 1.7 | 5.2 | 0.00 | 0.00 | 0.00 | 93 | 1003.4 |
| 20260507020245 | 60 | 212 | 1.7 | 5.2 | 0.00 | 0.00 | 0.00 | 93 | 1003.4 |
| 20260507015231 | 60 | 146 | 1.7 | 7.0 | 0.00 | 0.00 | 0.00 | 94 | 1003.6 |
| 20260507014726 | 60 | 212 | 1.7 | 5.2 | 0.00 | 0.00 | 0.00 | 94 | 1003.6 |
| 20260507014220 | 60 | 200 | 1.7 | 4.3 | 0.00 | 0.00 | 0.00 | 94 | 1003.6 |
| 20260507013714 | 60 | 169 | 2.6 | 8.7 | 0.00 | 0.00 | 0.00 | 94 | 1003.6 |
| 20260507013210 | 60 | 212 | 1.7 | 8.7 | 0.00 | 0.00 | 0.00 | 94 | 1003.7 |
| 20260507012704 | 60 | 157 | 1.7 | 8.7 | 0.00 | 0.00 | 0.00 | 94 | 1003.6 |
| 20260507011651 | 60 | 218 | 1.7 | 5.2 | 0.00 | 0.00 | 0.00 | 94 | 1003.7 |
| 20260507011147 | 60 | 168 | 1.7 | 5.2 | 0.00 | 0.00 | 0.00 | 94 | 1003.7 |
| 20260507010639 | 60 | 194 | 1.7 | 7.0 | 0.00 | 0.00 | 0.00 | 94 | 1003.8 |
| 20260507010132 | 60 | 205 | 2.6 | 7.0 | 0.00 | 0.00 | 0.00 | 94 | 1003.8 |
| 20260507005626 | 60 | 184 | 2.6 | 7.0 | 0.00 | 0.00 | 0.00 | 94 | 1003.8 |
| 20260507005120 | 60 | 193 | 1.7 | 7.0 | 0.00 | 0.00 | 0.00 | 94 | 1003.6 |
| 20260507004617 | 60 | 162 | 1.7 | 6.1 | 0.00 | 0.00 | 0.00 | 94 | 1003.7 |
| 20260507004107 | 60 | 155 | 0.9 | 3.5 | 0.00 | 0.00 | 0.00 | 94 | 1003.7 |
| 20260507003604 | 60 | 160 | 0.9 | 2.6 | 0.00 | 0.00 | 0.00 | 94 | 1003.8 |
| 20260507002550 | 60 | 151 | 1.7 | 6.1 | 0.00 | 0.00 | 0.00 | 94 | 1003.7 |
| 20260507002045 | 60 | 163 | 0.9 | 4.3 | 0.00 | 0.00 | 0.00 | 94 | 1003.7 |
| 20260507000538 | 60 | 210 | 1.7 | 3.5 | 0.00 | 0.00 | 0.00 | 94 | 1003.5 |
| 20260506235516 | 60 | 167 | 0.9 | 2.6 | 0.00 | 0.00 | 0.00 | 94 | 1003.4 |
| 20260506234019 | 60 | 157 | 0.9 | 3.5 | 0.00 | 0.00 | 0.00 | 94 | 1003.5 |
| 20260506233014 | 60 | 172 | 0.9 | 5.2 | 0.00 | 0.00 | 0.00 | 94 | 1003.5 |
| 20260506232527 | 60 | 198 | 0.9 | 5.2 | 0.00 | 0.00 | 0.00 | 94 | 1003.5 |
| 20260506231514 | 60 | 129 | 0.9 | 4.3 | 0.00 | 0.00 | 0.00 | 93 | 1003.8 |
| 20260506231015 | 60 | 322 | 0.9 | 3.5 | 0.00 | 0.00 | 0.00 | 93 | 1003.8 |
| 20260506230515 | 60 | 150 | 1.7 | 4.3 | 0.00 | 0.00 | 0.00 | 93 | 1003.8 |
| 20260506225513 | 60 | 163 | 1.7 | 5.2 | 0.00 | 0.00 | 0.00 | 93 | 1003.8 |
| 20260506225013 | 60 | 171 | 1.7 | 5.2 | 0.00 | 0.00 | 0.00 | 93 | 1003.8 |
| 20260506224017 | 60 | 181 | 1.7 | 3.5 | 0.00 | 0.00 | 0.00 | 93 | 1003.8 |
| 20260506223512 | 60 | 150 | 1.7 | 4.3 | 0.00 | 0.00 | 0.00 | 93 | 1004.0 |
| 20260506223012 | 60 | 164 | 0.9 | 7.0 | 0.00 | 0.00 | 0.00 | 93 | 1004.0 |
| 20260506222511 | 60 | 226 | 0.9 | 7.0 | 0.00 | 0.00 | 0.00 | 93 | 1004.0 |
| 20260506222012 | 60 | 179 | 0.0 | 2.6 | 0.00 | 0.00 | 0.00 | 93 | 1004.0 |
| 20260506221010 | 60 | 148 | 1.7 | 5.2 | 0.00 | 0.00 | 0.00 | 93 | 1004.1 |
| 20260506220511 | 60 | 195 | 1.7 | 5.2 | 0.00 | 0.00 | 0.00 | 92 | 1004.1 |
| 20260506220013 | 60 | 158 | 0.9 | 3.5 | 0.00 | 0.00 | 0.00 | 93 | 1004.2 |
| 20260506215511 | 61 | 141 | 0.9 | 3.5 | 0.00 | 0.00 | 0.00 | 92 | 1004.2 |
| 20260506215009 | 61 | 141 | 0.9 | 3.5 | 0.00 | 0.00 | 0.00 | 92 | 1004.3 |
| 20260506214508 | 61 | 212 | 0.9 | 4.3 | 0.00 | 0.00 | 0.00 | 92 | 1004.4 |
| 20260506214013 | 61 | 155 | 1.7 | 4.3 | 0.00 | 0.00 | 0.00 | 92 | 1004.3 |
| 20260506213511 | 61 | 141 | 1.7 | 4.3 | 0.00 | 0.00 | 0.00 | 92 | 1004.4 |
| 20260506213010 | 61 | 151 | 1.7 | 5.2 | 0.00 | 0.00 | 0.00 | 92 | 1004.5 |
| 20260506212510 | 61 | 149 | 1.7 | 5.2 | 0.00 | 0.00 | 0.00 | 92 | 1004.6 |
| 20260506212007 | 61 | 197 | 1.7 | 5.2 | 0.00 | 0.00 | 0.00 | 91 | 1004.6 |
| 20260506211505 | 61 | 142 | 2.6 | 5.2 | 0.00 | 0.00 | 0.00 | 91 | 1004.7 |
| 20260506210502 | 62 | 162 | 2.6 | 4.3 | 0.00 | 0.00 | 0.00 | 91 | 1004.7 |
| 20260506210004 | 62 | 163 | 1.7 | 6.1 | 0.00 | 0.00 | 0.00 | 91 | 1004.9 |
| 20260506204503 | 62 | 155 | 0.0 | 0.9 | 0.00 | 0.00 | 0.00 | 90 | 1004.8 |
| 20260506203459 | 63 | 147 | 0.0 | 2.6 | 0.00 | 0.00 | 0.00 | 89 | 1004.7 |
| 20260506202959 | 63 | 136 | 0.0 | 1.7 | 0.00 | 0.00 | 0.00 | 88 | 1004.8 |
| 20260506202458 | 63 | 146 | 0.0 | 1.7 | 0.00 | 0.00 | 0.00 | 88 | 1004.7 |
| 20260506201957 | 64 | 166 | 0.0 | 0.9 | 0.00 | 0.00 | 0.00 | 87 | 1004.8 |
| 20260506201457 | 64 | 145 | 0.0 | 0.9 | 0.00 | 0.00 | 0.00 | 86 | 1004.7 |
| 20260506200458 | 65 | 147 | 0.0 | 0.0 | 0.00 | 0.00 | 0.00 | 84 | 1004.6 |
| 20260506195455 | 65 | 146 | 0.9 | 6.1 | 0.00 | 0.00 | 0.00 | 81 | 1004.7 |
| 20260506194953 | 65 | 202 | 1.7 | 6.1 | 0.00 | 0.00 | 0.00 | 80 | 1004.6 |
| 20260506194450 | 66 | 160 | 1.7 | 4.3 | 0.00 | 0.00 | 0.00 | 79 | 1004.7 |
| 20260506193951 | 66 | 146 | 2.6 | 6.1 | 0.00 | 0.00 | 0.00 | 77 | 1004.7 |
| 20260506193450 | 67 | 142 | 1.7 | 6.1 | 0.00 | 0.00 | 0.00 | 75 | 1004.8 |
| 20260506192952 | 67 | 184 | 1.7 | 7.0 | 0.00 | 0.00 | 0.00 | 74 | 1004.9 |
| 20260506192451 | 67 | 151 | 2.6 | 7.8 | 0.00 | 0.00 | 0.00 | 72 | 1004.9 |
| 20260506191952 | 68 | 199 | 3.5 | 7.8 | 0.00 | 0.00 | 0.00 | 71 | 1004.8 |
| 20260506191452 | 68 | 217 | 3.5 | 10.4 | 0.00 | 0.00 | 0.00 | 70 | 1004.7 |
| 20260506190952 | 69 | 158 | 3.5 | 10.4 | 0.00 | 0.00 | 0.00 | 68 | 1004.7 |
| 20260506185953 | 69 | 174 | 0.9 | 6.1 | 0.00 | 0.00 | 0.00 | 67 | 1004.8 |
| 20260506185452 | 70 | 139 | 0.9 | 6.1 | 0.00 | 0.00 | 0.00 | 67 | 1004.8 |
| 20260506184950 | 70 | 153 | 0.9 | 5.2 | 0.00 | 0.00 | 0.00 | 67 | 1004.7 |
| 20260506184451 | 70 | 180 | 1.7 | 3.5 | 0.00 | 0.00 | 0.00 | 64 | 1004.6 |
| 20260506183952 | 71 | 141 | 2.6 | 5.2 | 0.00 | 0.00 | 0.00 | 63 | 1004.6 |
| 20260506182948 | 71 | 159 | 1.7 | 5.2 | 0.00 | 0.00 | 0.00 | 60 | 1004.6 |
| 20260506182448 | 72 | 153 | 2.6 | 9.6 | 0.00 | 0.00 | 0.00 | 60 | 1004.6 |
| 20260506181951 | 72 | 154 | 4.3 | 10.4 | 0.00 | 0.00 | 0.00 | 59 | 1004.7 |
| 20260506181450 | 72 | 141 | 2.6 | 10.4 | 0.00 | 0.00 | 0.00 | 59 | 1004.8 |
| 20260506180949 | 72 | 160 | 1.7 | 4.3 | 0.00 | 0.00 | 0.00 | 60 | 1005.0 |
| 20260506180448 | 72 | 145 | 1.7 | 5.2 | 0.00 | 0.00 | 0.00 | 60 | 1004.8 |
| 20260506175446 | 72 | 142 | 1.7 | 3.5 | 0.00 | 0.00 | 0.00 | 59 | 1005.1 |
| 20260506174948 | 73 | 105 | 1.7 | 5.2 | 0.00 | 0.00 | 0.00 | 59 | 1005.0 |
| 20260506174446 | 73 | 158 | 1.7 | 5.2 | 0.00 | 0.00 | 0.00 | 59 | 1005.0 |
| 20260506173948 | 73 | 134 | 1.7 | 5.2 | 0.00 | 0.00 | 0.00 | 58 | 1005.0 |
| 20260506172947 | 74 | 154 | 1.7 | 7.0 | 0.00 | 0.00 | 0.00 | 58 | 1005.1 |
| 20260506171942 | 73 | 119 | 0.9 | 4.3 | 0.00 | 0.00 | 0.00 | 59 | 1005.2 |
| 20260506171444 | 72 | 165 | 0.9 | 3.5 | 0.00 | 0.00 | 0.00 | 60 | 1005.2 |
| 20260506170943 | 72 | 84 | 0.0 | 5.2 | 0.00 | 0.00 | 0.00 | 62 | 1005.2 |
| 20260506170444 | 72 | 121 | 0.0 | 5.2 | 0.00 | 0.00 | 0.00 | 61 | 1005.3 |
| 20260506165943 | 72 | 122 | 0.0 | 3.5 | 0.00 | 0.00 | 0.00 | 62 | 1005.4 |
| 20260506165443 | 72 | 127 | 0.9 | 3.5 | 0.00 | 0.00 | 0.00 | 60 | 1005.4 |
| 20260506164944 | 73 | 142 | 1.7 | 7.8 | 0.00 | 0.00 | 0.00 | 59 | 1005.6 |
| 20260506163944 | 73 | 147 | 2.6 | 7.8 | 0.00 | 0.00 | 0.00 | 57 | 1005.6 |
| 20260506162938 | 73 | 224 | 1.7 | 8.7 | 0.00 | 0.00 | 0.00 | 59 | 1005.7 |
| 20260506162440 | 73 | 202 | 1.7 | 8.7 | 0.00 | 0.00 | 0.00 | 58 | 1005.7 |
| 20260506161941 | 72 | 212 | 1.7 | 6.1 | 0.00 | 0.00 | 0.00 | 59 | 1006.0 |
| 20260506161440 | 72 | 165 | 2.6 | 9.6 | 0.00 | 0.00 | 0.00 | 59 | 1006.0 |
| 20260506160942 | 72 | 146 | 1.7 | 9.6 | 0.00 | 0.00 | 0.00 | 59 | 1006.2 |
| 20260506155945 | 71 | 167 | 2.6 | 7.8 | 0.00 | 0.00 | 0.00 | 60 | 1006.4 |
| 20260506155443 | 71 | 151 | 2.6 | 7.8 | 0.00 | 0.00 | 0.00 | 60 | 1006.5 |
| 20260506154937 | 71 | 153 | 2.6 | 7.8 | 0.00 | 0.00 | 0.00 | 60 | 1006.6 |
| 20260506154437 | 71 | 169 | 3.5 | 11.3 | 0.00 | 0.00 | 0.00 | 61 | 1006.9 |
| 20260506153937 | 71 | 165 | 4.3 | 11.3 | 0.00 | 0.00 | 0.00 | 61 | 1007.0 |
| 20260506153435 | 71 | 156 | 4.3 | 10.4 | 0.00 | 0.00 | 0.00 | 61 | 1007.0 |
| 20260506152437 | 71 | 136 | 4.3 | 11.3 | 0.00 | 0.00 | 0.00 | 60 | 1007.2 |
| 20260506151936 | 72 | 146 | 3.5 | 11.3 | 0.00 | 0.00 | 0.00 | 60 | 1007.1 |
| 20260506151436 | 72 | 206 | 2.6 | 7.8 | 0.00 | 0.00 | 0.00 | 61 | 1007.1 |
| 20260506150936 | 71 | 124 | 4.3 | 9.6 | 0.00 | 0.00 | 0.00 | 62 | 1007.1 |
| 20260506150435 | 71 | 188 | 4.3 | 13.0 | 0.00 | 0.00 | 0.00 | 62 | 1007.3 |
| 20260506145435 | 70 | 226 | 3.5 | 13.0 | 0.00 | 0.00 | 0.00 | 63 | 1007.3 |
| 20260506144935 | 70 | 266 | 4.3 | 13.0 | 0.00 | 0.00 | 0.00 | 64 | 1007.2 |
| 20260506144437 | 70 | 91 | 4.3 | 11.3 | 0.00 | 0.00 | 0.00 | 63 | 1007.0 |
| 20260506143935 | 70 | 149 | 4.3 | 11.3 | 0.00 | 0.00 | 0.00 | 64 | 1007.1 |
| 20260506142936 | 70 | 206 | 2.6 | 6.1 | 0.00 | 0.00 | 0.00 | 65 | 1007.0 |
| 20260506142436 | 70 | 129 | 3.5 | 7.8 | 0.00 | 0.00 | 0.00 | 65 | 1006.8 |
| 20260506141434 | 69 | 223 | 2.6 | 12.2 | 0.00 | 0.00 | 0.00 | 66 | 1007.0 |
| 20260506140935 | 69 | 172 | 2.6 | 12.2 | 0.00 | 0.00 | 0.00 | 68 | 1007.1 |
| 20260506140437 | 68 | 144 | 2.6 | 5.2 | 0.00 | 0.00 | 0.00 | 68 | 1007.1 |
| 20260506135936 | 68 | 134 | 2.6 | 6.1 | 0.00 | 0.00 | 0.00 | 69 | 1007.1 |
| 20260506135435 | 68 | 213 | 2.6 | 6.1 | 0.00 | 0.00 | 0.00 | 69 | 1007.1 |
| 20260506134937 | 68 | 183 | 2.6 | 7.0 | 0.00 | 0.00 | 0.00 | 69 | 1007.3 |
| 20260506134436 | 68 | 130 | 2.6 | 7.0 | 0.00 | 0.00 | 0.00 | 69 | 1007.4 |
| 20260506133935 | 68 | 132 | 1.7 | 4.3 | 0.00 | 0.00 | 0.00 | 70 | 1007.6 |
| 20260506133435 | 67 | 237 | 1.7 | 7.0 | 0.00 | 0.00 | 0.00 | 70 | 1007.6 |
| 20260506132935 | 67 | 169 | 2.6 | 7.8 | 0.00 | 0.00 | 0.00 | 71 | 1007.7 |
| 20260506132437 | 67 | 223 | 2.6 | 7.8 | 0.00 | 0.00 | 0.00 | 71 | 1007.6 |
| 20260506131933 | 67 | 158 | 2.6 | 8.7 | 0.00 | 0.00 | 0.00 | 71 | 1007.6 |
| 20260506131446 | 66 | 158 | 2.6 | 10.4 | 0.00 | 0.00 | 0.00 | 72 | 1007.5 |
| 20260506130935 | 66 | 214 | 3.5 | 10.4 | 0.00 | 0.00 | 0.00 | 72 | 1007.5 |
| 20260506125932 | 66 | 134 | 4.3 | 10.4 | 0.00 | 0.00 | 0.00 | 71 | 1007.5 |
| 20260506125430 | 67 | 178 | 3.5 | 7.8 | 0.00 | 0.00 | 0.00 | 71 | 1007.6 |
| 20260506124930 | 66 | 174 | 2.6 | 7.8 | 0.00 | 0.00 | 0.00 | 72 | 1007.4 |
| 20260506124430 | 66 | 150 | 2.6 | 9.6 | 0.00 | 0.00 | 0.00 | 74 | 1007.5 |
| 20260506123926 | 65 | 207 | 3.5 | 9.6 | 0.00 | 0.00 | 0.00 | 74 | 1007.6 |
| 20260506123428 | 65 | 186 | 3.5 | 8.7 | 0.00 | 0.00 | 0.00 | 74 | 1007.8 |
| 20260506122926 | 65 | 193 | 3.5 | 9.6 | 0.00 | 0.00 | 0.00 | 74 | 1007.9 |
| 20260506122427 | 65 | 202 | 1.7 | 9.6 | 0.00 | 0.00 | 0.00 | 74 | 1007.7 |
| 20260506121926 | 65 | 213 | 0.9 | 4.3 | 0.00 | 0.00 | 0.00 | 75 | 1007.6 |
| 20260506121425 | 64 | 204 | 1.7 | 6.1 | 0.00 | 0.00 | 0.00 | 75 | 1007.6 |
| 20260506120922 | 64 | 196 | 2.6 | 11.3 | 0.00 | 0.00 | 0.00 | 76 | 1007.7 |
| 20260506120436 | 64 | 166 | 2.6 | 11.3 | 0.00 | 0.00 | 0.00 | 76 | 1007.9 |
| 20260506115921 | 64 | 137 | 1.7 | 4.3 | 0.00 | 0.00 | 0.00 | 76 | 1007.8 |
| 20260506115423 | 64 | 179 | 2.6 | 7.0 | 0.00 | 0.00 | 0.00 | 76 | 1007.9 |
| 20260506114920 | 64 | 195 | 1.7 | 7.0 | 0.00 | 0.00 | 0.00 | 76 | 1007.9 |
| 20260506114422 | 64 | 144 | 2.6 | 7.0 | 0.00 | 0.00 | 0.00 | 76 | 1008.0 |
| 20260506113921 | 63 | 141 | 2.6 | 7.0 | 0.00 | 0.00 | 0.00 | 76 | 1008.1 |
| 20260506112917 | 63 | 219 | 2.6 | 7.0 | 0.00 | 0.00 | 0.00 | 77 | 1008.0 |
| 20260506112414 | 63 | 162 | 2.6 | 7.0 | 0.00 | 0.00 | 0.00 | 77 | 1007.9 |
| 20260506111913 | 63 | 191 | 2.6 | 7.0 | 0.00 | 0.00 | 0.00 | 77 | 1007.9 |
| 20260506111412 | 63 | 200 | 2.6 | 7.0 | 0.00 | 0.00 | 0.00 | 78 | 1007.9 |
| 20260506110408 | 62 | 166 | 2.6 | 10.4 | 0.00 | 0.00 | 0.00 | 78 | 1008.1 |
| 20260506105909 | 62 | 211 | 2.6 | 10.4 | 0.00 | 0.00 | 0.00 | 78 | 1008.1 |
| 20260506105409 | 62 | 150 | 2.6 | 6.1 | 0.00 | 0.00 | 0.00 | 77 | 1008.1 |
| 20260506104910 | 62 | 146 | 1.7 | 5.2 | 0.00 | 0.00 | 0.00 | 77 | 1008.0 |
| 20260506104406 | 62 | 158 | 1.7 | 6.1 | 0.00 | 0.00 | 0.00 | 77 | 1008.0 |
| 20260506103907 | 62 | 204 | 1.7 | 6.1 | 0.00 | 0.00 | 0.00 | 77 | 1008.0 |
| 20260506103405 | 62 | 187 | 1.7 | 6.1 | 0.00 | 0.00 | 0.00 | 77 | 1008.0 |
| 20260506102905 | 62 | 180 | 1.7 | 7.8 | 0.00 | 0.00 | 0.00 | 77 | 1008.0 |
| 20260506101909 | 62 | 144 | 0.9 | 4.3 | 0.00 | 0.00 | 0.00 | 77 | 1008.0 |
| 20260506101409 | 62 | 157 | 1.7 | 5.2 | 0.00 | 0.00 | 0.00 | 76 | 1008.0 |
| 20260506100403 | 62 | 165 | 1.7 | 5.2 | 0.00 | 0.00 | 0.00 | 76 | 1007.9 |
| 20260506095903 | 62 | 205 | 0.9 | 5.2 | 0.00 | 0.00 | 0.00 | 77 | 1007.9 |
| 20260506095402 | 62 | 199 | 0.9 | 3.5 | 0.00 | 0.00 | 0.00 | 77 | 1007.8 |
| 20260506094858 | 62 | 150 | 0.9 | 6.1 | 0.00 | 0.00 | 0.00 | 77 | 1007.9 |
| 20260506094350 | 62 | 155 | 1.7 | 6.1 | 0.00 | 0.00 | 0.00 | 76 | 1008.0 |
| 20260506093844 | 62 | 182 | 1.7 | 5.2 | 0.00 | 0.00 | 0.00 | 76 | 1008.0 |
| 20260506093338 | 62 | 214 | 1.7 | 7.0 | 0.00 | 0.00 | 0.00 | 76 | 1008.0 |
| 20260506091822 | 62 | 217 | 1.7 | 7.8 | 0.00 | 0.00 | 0.00 | 75 | 1007.9 |
| 20260506091315 | 62 | 189 | 0.9 | 7.8 | 0.00 | 0.00 | 0.00 | 75 | 1007.9 |
| 20260506090302 | 62 | 171 | 2.6 | 9.6 | 0.00 | 0.00 | 0.00 | 74 | 1008.0 |